createdAt,value
2022-10-01T00:04:37.873Z,26.93
2022-10-01T00:09:40.999Z,31.23
2022-10-01T00:14:44.749Z,27.83
2022-10-01T00:19:47.593Z,31.27
2022-10-01T00:24:50.289Z,25.10
2022-10-01T00:29:54.169Z,24.70
2022-10-01T00:34:56.909Z,27.50
2022-10-01T00:39:59.817Z,33.23
2022-10-01T00:45:02.550Z,28.10
2022-10-01T00:50:22.754Z,27.05
2022-10-01T00:55:38.075Z,28.47
2022-10-01T01:00:42.912Z,31.77
2022-10-01T01:05:47.974Z,28.20
2022-10-01T01:11:14.306Z,22.65
2022-10-01T01:16:34.204Z,25.52
2022-10-01T01:21:42.820Z,24.03
2022-10-01T01:27:17.564Z,25.50
2022-10-01T01:32:32.992Z,26.23
2022-10-01T01:37:41.361Z,24.90
2022-10-01T01:42:46.854Z,25.73
2022-10-01T01:47:50.584Z,22.67
2022-10-01T01:52:54.652Z,23.48
2022-10-01T01:57:58.094Z,27.67
2022-10-01T02:03:00.857Z,27.42
2022-10-01T02:08:22.315Z,26.20
2022-10-01T02:13:31.023Z,22.83
2022-10-01T02:19:02.205Z,19.77
2022-10-01T02:24:14.581Z,20.47
2022-10-01T02:29:21.503Z,21.02
2022-10-01T02:34:34.058Z,20.65
2022-10-01T02:39:41.138Z,22.00
2022-10-01T02:44:45.787Z,23.95
2022-10-01T02:49:49.898Z,25.07
2022-10-01T02:55:19.644Z,23.23
2022-10-01T03:00:22.337Z,23.05
2022-10-01T03:05:25.151Z,22.73
2022-10-01T03:10:27.807Z,23.92
2022-10-01T03:15:30.533Z,26.03
2022-10-01T03:20:33.234Z,27.23
2022-10-01T03:25:36.617Z,31.20
2022-10-01T03:30:39.329Z,22.50
2022-10-01T03:35:42.078Z,30.90
2022-10-01T03:40:44.914Z,25.17
2022-10-01T03:45:48.075Z,23.08
2022-10-01T03:50:58.808Z,25.80
2022-10-01T03:56:01.767Z,22.90
2022-10-01T04:01:04.649Z,21.85
2022-10-01T04:06:07.818Z,24.60
2022-10-01T04:11:10.730Z,22.63
2022-10-01T04:16:13.747Z,24.30
2022-10-01T04:21:16.684Z,25.13
2022-10-01T04:26:19.739Z,23.50
2022-10-01T04:31:25.165Z,31.20
2022-10-01T04:36:28.330Z,27.98
2022-10-01T04:41:32.207Z,26.55
2022-10-01T04:46:35.177Z,26.67
2022-10-01T04:51:37.949Z,25.33
2022-10-01T04:56:40.673Z,26.40
2022-10-01T05:01:43.472Z,31.45
2022-10-01T05:06:46.278Z,29.92
2022-10-01T05:11:52.328Z,51.20
2022-10-01T05:16:55.068Z,46.92
2022-10-01T05:21:57.843Z,56.47
2022-10-01T05:27:00.567Z,47.53
2022-10-01T05:32:03.397Z,49.30
2022-10-01T05:37:07.278Z,47.40
2022-10-01T05:42:10.108Z,56.33
2022-10-01T05:47:16.389Z,58.27
2022-10-01T05:52:19.222Z,55.67
2022-10-01T05:57:21.928Z,52.55
2022-10-01T06:02:24.783Z,49.50
2022-10-01T06:07:32.098Z,42.47
2022-10-01T06:12:34.987Z,42.03
2022-10-01T06:17:44.060Z,47.83
2022-10-01T06:22:55.560Z,46.25
2022-10-01T06:28:00.146Z,45.83
2022-10-01T06:33:10.574Z,45.65
2022-10-01T06:38:13.818Z,43.50
2022-10-01T06:43:16.588Z,45.67
2022-10-01T06:48:20.658Z,41.38
2022-10-01T06:53:23.497Z,42.13
2022-10-01T06:58:29.149Z,35.42
2022-10-01T07:03:32.134Z,40.47
2022-10-01T07:08:34.942Z,38.17
2022-10-01T07:13:37.719Z,35.38
2022-10-01T07:18:41.151Z,35.00
2022-10-01T07:23:43.931Z,33.42
2022-10-01T07:28:46.970Z,32.97
2022-10-01T07:33:50.259Z,31.05
2022-10-01T07:38:53.233Z,36.92
2022-10-01T07:43:56.366Z,32.53
2022-10-01T07:48:59.079Z,29.92
2022-10-01T07:54:03.142Z,29.67
2022-10-01T07:59:06.035Z,27.52
2022-10-01T08:04:31.654Z,26.65
2022-10-01T08:09:35.168Z,28.83
2022-10-01T08:14:38.118Z,30.98
2022-10-01T08:19:41.008Z,32.10
2022-10-01T08:24:44.000Z,26.95
2022-10-01T08:29:46.819Z,30.13
2022-10-01T08:34:54.511Z,28.17
2022-10-01T08:39:59.277Z,25.20
2022-10-01T08:45:06.975Z,24.57
2022-10-01T08:50:20.005Z,20.73
2022-10-01T08:55:27.758Z,25.58
2022-10-01T09:00:32.958Z,24.60
2022-10-01T09:05:51.573Z,26.60
2022-10-01T09:11:01.078Z,22.40
2022-10-01T09:16:10.236Z,24.02
2022-10-01T09:21:21.701Z,26.45
2022-10-01T09:26:25.850Z,28.80
2022-10-01T09:31:41.532Z,29.00
2022-10-01T09:37:15.011Z,28.67
2022-10-01T09:42:18.688Z,25.48
2022-10-01T09:47:25.953Z,27.08
2022-10-01T09:52:33.769Z,23.50
2022-10-01T09:57:46.777Z,25.52
2022-10-01T10:02:51.671Z,21.27
2022-10-01T10:08:16.958Z,23.40
2022-10-01T10:13:42.257Z,20.73
2022-10-01T10:18:52.401Z,22.40
2022-10-01T10:23:59.508Z,24.23
2022-10-01T10:29:03.709Z,23.63
2022-10-01T10:34:16.079Z,25.63
2022-10-01T10:39:22.498Z,28.65
2022-10-01T10:44:35.445Z,27.20
2022-10-01T10:50:03.304Z,22.60
2022-10-01T10:55:21.988Z,30.43
2022-10-01T11:00:26.695Z,28.80
2022-10-01T11:05:33.002Z,31.30
2022-10-01T11:10:57.177Z,25.53
2022-10-01T11:16:49.350Z,26.85
2022-10-01T11:22:10.960Z,28.03
2022-10-01T11:27:37.908Z,35.30
2022-10-01T11:32:52.439Z,29.92
2022-10-01T11:38:13.579Z,22.53
2022-10-01T11:43:31.997Z,22.88
2022-10-01T11:48:41.270Z,24.33
2022-10-01T11:53:51.909Z,25.90
2022-10-01T11:59:02.753Z,23.52
2022-10-01T12:04:20.364Z,27.77
2022-10-01T12:09:35.413Z,24.30
2022-10-01T12:15:06.198Z,33.93
2022-10-01T12:20:43.699Z,29.85
2022-10-01T12:26:18.670Z,22.67
2022-10-01T12:31:59.450Z,16.87
2022-10-01T12:37:33.675Z,18.10
2022-10-01T12:43:09.489Z,17.90
2022-10-01T12:48:38.198Z,19.77
2022-10-01T12:54:01.349Z,20.02
2022-10-01T12:59:26.983Z,21.93
2022-10-01T13:05:17.108Z,20.55
2022-10-01T13:10:32.878Z,24.83
2022-10-01T13:15:43.166Z,23.38
2022-10-01T13:21:30.713Z,23.95
2022-10-01T13:26:46.440Z,23.60
2022-10-01T13:32:02.819Z,21.17
2022-10-01T13:37:20.014Z,25.33
2022-10-01T13:42:28.178Z,23.63
2022-10-01T13:47:32.542Z,22.10
2022-10-01T13:52:35.997Z,22.40
2022-10-01T13:57:39.943Z,30.48
2022-10-01T14:03:04.292Z,34.50
2022-10-01T14:08:50.392Z,23.30
2022-10-01T14:14:11.590Z,23.05
2022-10-01T14:19:24.514Z,24.43
2022-10-01T14:24:54.629Z,27.30
2022-10-01T14:30:11.252Z,25.67
2022-10-01T14:35:21.033Z,26.17
2022-10-01T14:40:25.133Z,22.60
2022-10-01T14:45:29.151Z,28.90
2022-10-01T14:50:35.493Z,40.65
2022-10-01T14:55:39.240Z,43.63
2022-10-01T15:00:51.026Z,36.63
2022-10-01T15:06:04.213Z,48.00
2022-10-01T15:11:27.539Z,39.57
2022-10-01T15:16:33.594Z,28.58
2022-10-01T15:21:45.629Z,29.17
2022-10-01T15:26:50.019Z,28.17
2022-10-01T15:31:55.084Z,29.95
2022-10-01T15:37:00.283Z,30.07
2022-10-01T15:42:28.634Z,31.73
2022-10-01T15:47:36.534Z,33.13
2022-10-01T15:52:54.668Z,38.35
2022-10-01T15:58:30.660Z,35.35
2022-10-01T16:03:39.150Z,39.33
2022-10-01T16:09:06.700Z,35.92
2022-10-01T16:14:34.398Z,34.70
2022-10-01T16:19:37.323Z,44.88
2022-10-01T16:24:46.220Z,32.38
2022-10-01T16:30:05.440Z,31.93
2022-10-01T16:35:23.438Z,37.80
2022-10-01T16:40:32.372Z,36.93
2022-10-01T16:45:40.790Z,45.58
2022-10-01T16:50:46.793Z,41.42
2022-10-01T16:55:50.252Z,41.50
2022-10-01T17:00:53.354Z,34.40
2022-10-01T17:05:56.588Z,34.73
2022-10-01T17:11:03.685Z,37.58
2022-10-01T17:16:06.968Z,33.00
2022-10-01T17:21:10.171Z,36.57
2022-10-01T17:26:12.989Z,34.25
2022-10-01T17:31:18.012Z,32.27
2022-10-01T17:36:22.451Z,31.38
2022-10-01T17:41:25.742Z,33.45
2022-10-01T17:46:31.064Z,29.00
2022-10-01T17:51:33.934Z,30.95
2022-10-01T17:56:38.520Z,32.50
2022-10-01T18:01:41.859Z,33.30
2022-10-01T18:06:44.883Z,37.47
2022-10-01T18:11:48.683Z,35.13
2022-10-01T18:16:51.962Z,26.15
2022-10-01T18:21:55.057Z,21.53
2022-10-01T18:26:57.754Z,15.38
2022-10-01T18:32:14.474Z,8.85
2022-10-01T18:37:46.763Z,13.97
2022-10-01T18:43:04.644Z,14.18
2022-10-01T18:48:44.365Z,9.67
2022-10-01T18:53:58.883Z,8.73
2022-10-01T18:59:19.812Z,9.13
2022-10-01T19:04:41.207Z,9.70
2022-10-01T19:10:19.553Z,6.18
2022-10-01T19:15:51.558Z,5.27
2022-10-01T19:21:08.421Z,2.85
2022-10-01T19:26:15.844Z,4.40
2022-10-01T19:31:46.836Z,5.03
2022-10-01T19:37:00.092Z,4.65
2022-10-01T19:42:08.642Z,5.20
2022-10-01T19:47:36.149Z,5.40
2022-10-01T19:52:41.645Z,5.80
2022-10-01T19:57:45.382Z,4.33
2022-10-01T20:03:11.569Z,9.02
2022-10-01T20:08:34.442Z,3.50
2022-10-01T20:13:47.251Z,4.13
2022-10-01T20:19:05.566Z,5.90
2022-10-01T20:24:16.074Z,4.27
2022-10-01T20:29:51.187Z,5.30
2022-10-01T20:35:26.711Z,5.67
2022-10-01T20:40:37.524Z,6.45
2022-10-01T20:45:41.568Z,5.22
2022-10-01T20:50:48.081Z,7.73
2022-10-01T20:56:01.780Z,5.72
2022-10-01T21:01:20.912Z,5.73
2022-10-01T21:06:37.343Z,7.10
2022-10-01T21:11:53.183Z,7.50
2022-10-01T21:17:17.534Z,7.30
2022-10-01T21:22:39.087Z,6.53
2022-10-01T21:27:53.820Z,8.13
2022-10-01T21:33:14.442Z,7.63
2022-10-01T21:38:35.761Z,5.97
2022-10-01T21:44:16.873Z,5.23
2022-10-01T21:49:38.439Z,6.07
2022-10-01T21:54:44.863Z,6.70
2022-10-01T21:59:59.077Z,6.40
2022-10-01T22:05:23.755Z,5.72
2022-10-01T22:10:43.452Z,4.80
2022-10-01T22:15:50.141Z,5.70
2022-10-01T22:20:54.994Z,6.57
2022-10-01T22:26:02.013Z,5.28
2022-10-01T22:31:09.155Z,6.07
2022-10-01T22:36:36.752Z,4.43
2022-10-01T22:41:47.699Z,7.43
2022-10-01T22:47:06.365Z,4.80
2022-10-01T22:52:33.440Z,5.47
2022-10-01T22:57:56.449Z,5.72
2022-10-01T23:03:37.231Z,9.80
2022-10-01T23:08:46.337Z,8.77
2022-10-01T23:14:07.623Z,8.07
2022-10-01T23:19:35.933Z,5.30
2022-10-01T23:25:06.381Z,6.22
2022-10-01T23:30:14.413Z,4.57
2022-10-01T23:35:22.632Z,5.63
2022-10-01T23:40:33.529Z,4.10
2022-10-01T23:45:48.604Z,5.00
2022-10-01T23:51:08.056Z,3.47
2022-10-01T23:56:41.144Z,4.67
